createdAt,value
2023-05-01T00:02:52.936Z,78.72
2023-05-01T00:06:08.254Z,78.87
2023-05-01T00:09:11.002Z,78.98
2023-05-01T00:12:14.140Z,79.60
2023-05-01T00:15:17.382Z,79.58
2023-05-01T00:18:20.377Z,80.08
2023-05-01T00:21:23.257Z,80.65
2023-05-01T00:24:26.573Z,80.44
2023-05-01T00:27:29.250Z,80.05
2023-05-01T00:30:35.865Z,80.52
2023-05-01T00:33:38.603Z,80.09
2023-05-01T00:36:41.868Z,82.95
2023-05-01T00:39:44.559Z,81.78
2023-05-01T00:42:47.607Z,81.78
2023-05-01T00:45:50.787Z,81.79
2023-05-01T00:48:54.238Z,81.89
2023-05-01T00:51:58.888Z,81.35
2023-05-01T00:55:02.338Z,82.78
2023-05-01T00:58:05.232Z,82.48
2023-05-01T01:01:11.502Z,82.29
2023-05-01T01:04:14.418Z,81.93
2023-05-01T01:08:02.635Z,81.07
2023-05-01T01:11:35.195Z,80.42
2023-05-01T01:14:50.583Z,79.74
2023-05-01T01:18:12.817Z,80.30
2023-05-01T01:21:28.307Z,80.40
2023-05-01T01:25:01.152Z,80.70
2023-05-01T01:28:41.824Z,80.83
2023-05-01T01:32:23.120Z,80.46
2023-05-01T01:35:27.932Z,81.35
2023-05-01T01:38:40.638Z,81.93
2023-05-01T01:41:50.709Z,81.86
2023-05-01T01:44:56.241Z,83.52
2023-05-01T01:48:01.367Z,81.97
2023-05-01T01:51:10.621Z,83.20
2023-05-01T01:54:18.689Z,83.39
2023-05-01T01:57:23.989Z,82.89
2023-05-01T02:00:29.214Z,83.08
2023-05-01T02:03:33.852Z,82.36
2023-05-01T02:06:38.434Z,83.35
2023-05-01T02:09:43.169Z,83.55
2023-05-01T02:12:48.499Z,83.02
2023-05-01T02:15:53.194Z,83.42
2023-05-01T02:18:57.359Z,82.84
2023-05-01T02:22:03.081Z,82.38
2023-05-01T02:25:13.145Z,81.90
2023-05-01T02:28:22.659Z,81.15
2023-05-01T02:31:25.874Z,81.17
2023-05-01T02:34:28.884Z,81.20
2023-05-01T02:37:33.378Z,81.46
2023-05-01T02:40:39.964Z,81.62
2023-05-01T02:43:45.961Z,81.56
2023-05-01T02:46:50.772Z,81.71
2023-05-01T02:49:55.380Z,81.67
2023-05-01T02:52:59.971Z,81.16
2023-05-01T02:56:05.295Z,81.91
2023-05-01T02:59:08.019Z,81.33
2023-05-01T03:02:11.002Z,81.02
2023-05-01T03:05:14.100Z,81.14
2023-05-01T03:08:17.428Z,81.51
2023-05-01T03:11:21.426Z,82.12
2023-05-01T03:14:24.488Z,82.14
2023-05-01T03:17:27.707Z,81.18
2023-05-01T03:20:31.009Z,80.42
2023-05-01T03:23:34.086Z,80.83
2023-05-01T03:26:38.558Z,79.98
2023-05-01T03:29:41.435Z,81.53
2023-05-01T03:32:44.613Z,80.44
2023-05-01T03:35:48.267Z,80.08
2023-05-01T03:38:51.843Z,80.48
2023-05-01T03:41:59.207Z,81.12
2023-05-01T03:45:02.550Z,81.03
2023-05-01T03:48:06.164Z,80.63
2023-05-01T03:51:09.803Z,80.25
2023-05-01T03:54:13.053Z,80.73
2023-05-01T03:57:17.476Z,81.45
2023-05-01T04:00:20.970Z,81.27
2023-05-01T04:03:24.216Z,80.73
2023-05-01T04:06:27.320Z,80.83
2023-05-01T04:09:30.514Z,80.84
2023-05-01T04:12:33.238Z,80.66
2023-05-01T04:15:36.789Z,80.27
2023-05-01T04:18:40.086Z,79.98
2023-05-01T04:21:43.962Z,79.71
2023-05-01T04:24:47.046Z,79.89
2023-05-01T04:27:50.167Z,78.21
2023-05-01T04:30:52.892Z,76.72
2023-05-01T04:33:56.204Z,76.67
2023-05-01T04:36:59.074Z,75.62
2023-05-01T04:40:02.354Z,74.60
2023-05-01T04:43:05.559Z,76.17
2023-05-01T04:46:08.783Z,75.88
2023-05-01T04:49:11.812Z,75.65
2023-05-01T04:52:14.811Z,76.07
2023-05-01T04:55:18.801Z,75.88
2023-05-01T04:58:22.840Z,75.66
2023-05-01T05:01:26.418Z,75.60
2023-05-01T05:04:30.288Z,76.79
2023-05-01T05:07:33.086Z,76.02
2023-05-01T05:10:38.551Z,74.82
2023-05-01T05:13:42.551Z,72.21
2023-05-01T05:16:46.173Z,69.87
2023-05-01T05:19:49.471Z,68.12
2023-05-01T05:22:52.938Z,67.57
2023-05-01T05:25:56.302Z,65.54
2023-05-01T05:28:59.560Z,62.39
2023-05-01T05:32:02.940Z,59.91
2023-05-01T05:35:06.686Z,60.47
2023-05-01T05:38:09.471Z,60.11
2023-05-01T05:41:12.728Z,61.35
2023-05-01T05:44:15.392Z,59.34
2023-05-01T05:47:18.608Z,57.63
2023-05-01T05:50:21.752Z,56.01
2023-05-01T05:53:26.129Z,56.40
2023-05-01T05:56:29.388Z,56.42
2023-05-01T05:59:32.718Z,54.16
2023-05-01T06:02:35.493Z,55.38
2023-05-01T06:05:38.824Z,55.25
2023-05-01T06:08:41.641Z,54.25
2023-05-01T06:11:46.319Z,55.10
2023-05-01T06:14:49.325Z,55.10
2023-05-01T06:17:52.724Z,53.85
2023-05-01T06:20:55.920Z,53.45
2023-05-01T06:23:59.015Z,50.74
2023-05-01T06:27:02.378Z,49.19
2023-05-01T06:30:06.943Z,51.08
2023-05-01T06:33:10.588Z,49.22
2023-05-01T06:36:14.088Z,50.19
2023-05-01T06:39:16.754Z,49.09
2023-05-01T06:42:21.725Z,50.96
2023-05-01T06:45:24.372Z,50.25
2023-05-01T06:48:27.413Z,49.92
2023-05-01T06:51:31.650Z,49.65
2023-05-01T06:54:35.035Z,49.36
2023-05-01T06:57:40.272Z,49.48
2023-05-01T07:00:43.367Z,47.38
2023-05-01T07:03:46.616Z,46.63
2023-05-01T07:06:50.521Z,45.36
2023-05-01T07:09:55.537Z,44.47
2023-05-01T07:13:00.739Z,45.88
2023-05-01T07:16:03.438Z,46.17
2023-05-01T07:19:06.647Z,47.06
2023-05-01T07:22:09.357Z,46.93
2023-05-01T07:25:12.436Z,46.62
2023-05-01T07:28:15.850Z,46.12
2023-05-01T07:31:19.255Z,46.01
2023-05-01T07:34:21.973Z,45.88
2023-05-01T07:37:25.235Z,45.29
2023-05-01T07:40:27.942Z,45.50
2023-05-01T07:43:30.869Z,45.54
2023-05-01T07:46:37.257Z,42.95
2023-05-01T07:49:40.633Z,42.32
2023-05-01T07:52:43.358Z,42.60
2023-05-01T07:55:46.366Z,40.35
2023-05-01T07:58:49.181Z,39.34
2023-05-01T08:01:52.428Z,38.82
2023-05-01T08:04:55.612Z,34.85
2023-05-01T08:07:58.648Z,36.05
2023-05-01T08:11:02.488Z,36.39
2023-05-01T08:14:05.963Z,35.15
2023-05-01T08:17:08.927Z,36.50
2023-05-01T08:20:13.090Z,35.77
2023-05-01T08:23:17.151Z,38.00
2023-05-01T08:26:22.341Z,38.55
2023-05-01T08:29:25.638Z,39.47
2023-05-01T08:32:28.299Z,40.16
2023-05-01T08:35:31.635Z,39.14
2023-05-01T08:38:34.684Z,40.49
2023-05-01T08:41:38.420Z,39.54
2023-05-01T08:44:41.497Z,38.96
2023-05-01T08:47:45.123Z,37.67
2023-05-01T08:50:48.202Z,35.97
2023-05-01T08:53:52.973Z,36.63
2023-05-01T08:56:58.458Z,36.50
2023-05-01T09:00:04.695Z,35.31
2023-05-01T09:03:08.980Z,34.97
2023-05-01T09:06:12.634Z,33.75
2023-05-01T09:09:15.976Z,33.64
2023-05-01T09:12:26.719Z,34.35
2023-05-01T09:15:30.884Z,33.44
2023-05-01T09:18:35.333Z,32.67
2023-05-01T09:21:38.305Z,32.52
2023-05-01T09:24:42.250Z,33.95
2023-05-01T09:27:48.836Z,32.90
2023-05-01T09:30:51.725Z,32.86
2023-05-01T09:33:57.831Z,31.99
2023-05-01T09:37:00.925Z,31.74
2023-05-01T09:40:10.296Z,31.34
2023-05-01T09:43:13.535Z,32.39
2023-05-01T09:46:16.447Z,31.78
2023-05-01T09:49:19.666Z,31.16
2023-05-01T09:52:22.377Z,30.94
2023-05-01T09:55:26.039Z,30.69
2023-05-01T09:58:29.350Z,31.33
2023-05-01T10:01:43.393Z,31.93
2023-05-01T10:04:46.778Z,32.38
2023-05-01T10:08:01.284Z,32.72
2023-05-01T10:11:07.949Z,31.76
2023-05-01T10:14:11.324Z,33.11
2023-05-01T10:17:20.095Z,31.19
2023-05-01T10:20:22.791Z,32.01
2023-05-01T10:23:27.231Z,32.90
2023-05-01T10:26:33.210Z,33.47
2023-05-01T10:29:39.922Z,32.37
2023-05-01T10:32:44.207Z,31.80
2023-05-01T10:35:56.039Z,31.65
2023-05-01T10:38:59.323Z,31.46
2023-05-01T10:42:14.890Z,30.40
2023-05-01T10:45:30.926Z,29.64
2023-05-01T10:48:41.275Z,29.82
2023-05-01T10:52:00.101Z,29.40
2023-05-01T10:55:39.563Z,30.04
2023-05-01T10:58:44.163Z,29.91
2023-05-01T11:01:49.034Z,29.63
2023-05-01T11:04:54.169Z,29.88
2023-05-01T11:08:32.077Z,29.64
2023-05-01T11:11:34.941Z,29.77
2023-05-01T11:15:06.008Z,30.40
2023-05-01T11:18:10.276Z,30.17
2023-05-01T11:21:15.144Z,30.71
2023-05-01T11:24:19.145Z,31.79
2023-05-01T11:27:22.900Z,31.42
2023-05-01T11:30:26.357Z,30.81
2023-05-01T11:33:29.627Z,30.50
2023-05-01T11:36:49.484Z,29.84
2023-05-01T11:39:53.880Z,29.75
2023-05-01T11:43:07.403Z,28.50
2023-05-01T11:46:12.377Z,28.17
2023-05-01T11:49:15.193Z,28.52
2023-05-01T11:52:18.256Z,28.18
2023-05-01T11:55:22.070Z,28.11
2023-05-01T11:58:33.745Z,28.09
2023-05-01T12:01:39.283Z,28.24
2023-05-01T12:04:42.921Z,29.12
2023-05-01T12:07:46.165Z,29.99
2023-05-01T12:10:56.357Z,29.81
2023-05-01T12:13:59.325Z,29.37
2023-05-01T12:17:04.342Z,28.80
2023-05-01T12:20:08.141Z,28.66
2023-05-01T12:23:12.920Z,28.54
2023-05-01T12:26:19.693Z,29.91
2023-05-01T12:29:22.830Z,28.63
2023-05-01T12:32:31.511Z,27.29
2023-05-01T12:35:35.528Z,28.91
2023-05-01T12:38:39.294Z,31.35
2023-05-01T12:41:42.383Z,30.39
2023-05-01T12:44:46.208Z,30.92
2023-05-01T12:47:49.451Z,30.21
2023-05-01T12:50:55.356Z,29.08
2023-05-01T12:53:59.245Z,28.17
2023-05-01T12:57:18.194Z,27.61
2023-05-01T13:00:22.000Z,28.22
2023-05-01T13:03:29.528Z,29.25
2023-05-01T13:06:36.191Z,28.27
2023-05-01T13:09:39.573Z,29.37
2023-05-01T13:12:46.471Z,28.68
2023-05-01T13:15:49.627Z,28.47
2023-05-01T13:18:53.139Z,27.93
2023-05-01T13:21:57.923Z,28.33
2023-05-01T13:25:03.303Z,28.23
2023-05-01T13:28:07.112Z,27.94
2023-05-01T13:31:15.321Z,27.65
2023-05-01T13:34:27.844Z,28.65
2023-05-01T13:37:30.817Z,28.47
2023-05-01T13:40:34.539Z,28.89
2023-05-01T13:43:39.343Z,29.34
2023-05-01T13:46:45.658Z,29.12
2023-05-01T13:49:49.434Z,29.15
2023-05-01T13:52:52.288Z,29.27
2023-05-01T13:55:55.641Z,29.26
2023-05-01T13:59:01.038Z,29.56
2023-05-01T14:02:40.451Z,29.67
2023-05-01T14:05:43.681Z,29.33
2023-05-01T14:08:48.501Z,29.03
2023-05-01T14:11:51.760Z,28.49
2023-05-01T14:14:54.832Z,28.81
2023-05-01T14:18:01.243Z,29.10
2023-05-01T14:21:04.361Z,29.26
2023-05-01T14:24:09.324Z,29.27
2023-05-01T14:27:14.910Z,29.55
2023-05-01T14:30:38.668Z,30.69
2023-05-01T14:33:44.739Z,30.28
2023-05-01T14:36:47.777Z,30.77
2023-05-01T14:39:50.668Z,31.27
2023-05-01T14:42:58.143Z,31.55
2023-05-01T14:46:01.666Z,31.48
2023-05-01T14:49:05.350Z,31.82
2023-05-01T14:52:09.437Z,31.40
2023-05-01T14:55:13.033Z,31.97
2023-05-01T14:58:15.760Z,31.57
2023-05-01T15:01:19.536Z,31.50
2023-05-01T15:04:22.599Z,31.50
2023-05-01T15:07:25.853Z,31.73
2023-05-01T15:10:29.180Z,31.83
2023-05-01T15:13:32.132Z,31.95
2023-05-01T15:16:35.244Z,32.42
2023-05-01T15:19:38.350Z,32.36
2023-05-01T15:22:41.475Z,32.48
2023-05-01T15:25:44.723Z,33.26
2023-05-01T15:28:47.357Z,33.05
2023-05-01T15:31:58.277Z,34.00
2023-05-01T15:35:07.920Z,33.84
2023-05-01T15:38:10.952Z,33.81
2023-05-01T15:41:13.695Z,33.80
2023-05-01T15:44:17.108Z,33.98
2023-05-01T15:47:19.705Z,33.98
2023-05-01T15:50:23.915Z,34.23
2023-05-01T15:53:26.623Z,34.86
2023-05-01T15:56:33.876Z,34.66
2023-05-01T15:59:40.411Z,34.78
2023-05-01T16:02:44.822Z,34.65
2023-05-01T16:05:48.631Z,35.12
2023-05-01T16:08:51.870Z,34.88
2023-05-01T16:11:54.764Z,34.93
2023-05-01T16:14:57.568Z,35.12
2023-05-01T16:18:04.044Z,35.31
2023-05-01T16:21:07.562Z,35.57
2023-05-01T16:24:11.255Z,35.52
2023-05-01T16:27:14.431Z,35.67
2023-05-01T16:30:17.615Z,36.11
2023-05-01T16:33:21.347Z,36.09
2023-05-01T16:36:24.797Z,36.41
2023-05-01T16:39:27.556Z,36.66
2023-05-01T16:42:30.596Z,36.59
2023-05-01T16:45:33.414Z,37.37
2023-05-01T16:48:36.881Z,37.11
2023-05-01T16:51:43.885Z,37.59
2023-05-01T16:54:46.931Z,37.62
2023-05-01T16:57:50.972Z,37.40
2023-05-01T17:00:55.171Z,37.40
2023-05-01T17:03:58.629Z,37.89
2023-05-01T17:07:01.884Z,37.73
2023-05-01T17:10:05.091Z,38.37
2023-05-01T17:13:08.423Z,38.10
2023-05-01T17:16:11.454Z,38.44
2023-05-01T17:19:14.590Z,38.51
2023-05-01T17:22:17.669Z,39.01
2023-05-01T17:25:21.034Z,39.16
2023-05-01T17:28:24.494Z,39.54
2023-05-01T17:31:27.765Z,39.86
2023-05-01T17:34:31.172Z,40.04
2023-05-01T17:37:40.070Z,40.50
2023-05-01T17:40:43.007Z,41.06
2023-05-01T17:43:46.607Z,41.10
2023-05-01T17:46:49.830Z,41.53
2023-05-01T17:49:54.736Z,41.51
2023-05-01T17:52:58.095Z,42.41
2023-05-01T17:56:02.186Z,42.50
2023-05-01T17:59:04.993Z,43.40
2023-05-01T18:02:08.681Z,44.03
2023-05-01T18:05:12.364Z,43.98
2023-05-01T18:08:15.190Z,44.58
2023-05-01T18:11:18.776Z,45.19
2023-05-01T18:14:22.636Z,45.56
2023-05-01T18:17:26.759Z,45.40
2023-05-01T18:20:30.466Z,45.76
2023-05-01T18:23:36.017Z,46.05
2023-05-01T18:26:39.100Z,46.60
2023-05-01T18:29:42.823Z,46.23
2023-05-01T18:32:48.862Z,46.34
2023-05-01T18:35:52.957Z,46.76
2023-05-01T18:38:57.437Z,46.62
2023-05-01T18:42:01.986Z,46.45
2023-05-01T18:45:05.922Z,46.45
2023-05-01T18:48:10.512Z,46.28
2023-05-01T18:51:15.329Z,45.76
2023-05-01T18:54:20.741Z,47.14
2023-05-01T18:57:24.813Z,47.15
2023-05-01T19:00:30.009Z,47.87
2023-05-01T19:03:34.229Z,47.81
2023-05-01T19:06:41.278Z,47.84
2023-05-01T19:09:44.809Z,47.90
2023-05-01T19:12:52.254Z,48.45
2023-05-01T19:15:56.104Z,49.03
2023-05-01T19:19:00.122Z,49.00
2023-05-01T19:22:03.243Z,48.87
2023-05-01T19:25:07.103Z,49.14
2023-05-01T19:28:13.228Z,49.05
2023-05-01T19:31:19.245Z,48.57
2023-05-01T19:34:22.533Z,48.06
2023-05-01T19:37:29.528Z,48.33
2023-05-01T19:40:34.318Z,48.56
2023-05-01T19:43:38.222Z,48.63
2023-05-01T19:46:41.672Z,49.39
2023-05-01T19:49:47.151Z,50.07
2023-05-01T19:52:51.968Z,50.85
2023-05-01T19:55:56.729Z,51.16
2023-05-01T19:58:59.975Z,51.19
2023-05-01T20:02:06.047Z,51.16
2023-05-01T20:05:11.383Z,51.18
2023-05-01T20:08:14.949Z,52.42
2023-05-01T20:11:20.359Z,52.54
2023-05-01T20:14:24.485Z,52.63
2023-05-01T20:17:28.087Z,52.61
2023-05-01T20:20:34.583Z,52.87
2023-05-01T20:23:38.163Z,53.72
2023-05-01T20:26:41.778Z,54.42
2023-05-01T20:29:44.676Z,54.24
2023-05-01T20:32:48.118Z,54.41
2023-05-01T20:35:53.323Z,54.76
2023-05-01T20:38:58.182Z,54.90
2023-05-01T20:42:02.641Z,52.69
2023-05-01T20:45:09.626Z,52.16
2023-05-01T20:48:13.193Z,52.48
2023-05-01T20:51:16.391Z,52.08
2023-05-01T20:54:19.532Z,50.63
2023-05-01T20:57:22.443Z,49.78
2023-05-01T21:00:25.962Z,49.59
2023-05-01T21:03:29.281Z,49.09
2023-05-01T21:06:33.607Z,47.41
2023-05-01T21:09:37.351Z,47.04
2023-05-01T21:12:41.969Z,47.74
2023-05-01T21:15:46.180Z,46.87
2023-05-01T21:18:50.034Z,47.07
2023-05-01T21:21:55.012Z,46.29
2023-05-01T21:25:00.284Z,46.65
2023-05-01T21:28:05.644Z,45.75
2023-05-01T21:31:12.361Z,46.23
2023-05-01T21:34:18.752Z,45.20
2023-05-01T21:37:21.859Z,46.33
2023-05-01T21:40:25.989Z,45.75
2023-05-01T21:43:32.872Z,45.77
2023-05-01T21:46:37.381Z,45.72
2023-05-01T21:49:41.206Z,46.05
2023-05-01T21:52:45.748Z,45.94
2023-05-01T21:55:48.987Z,46.37
2023-05-01T21:58:52.038Z,46.05
2023-05-01T22:01:55.060Z,45.64
2023-05-01T22:04:58.250Z,45.30
2023-05-01T22:08:00.921Z,44.52
2023-05-01T22:11:05.026Z,44.71
2023-05-01T22:14:09.823Z,44.75
2023-05-01T22:17:13.141Z,44.52
2023-05-01T22:20:16.417Z,45.48
2023-05-01T22:23:19.455Z,44.58
2023-05-01T22:26:22.151Z,46.94
2023-05-01T22:29:25.121Z,48.79
2023-05-01T22:32:28.430Z,49.04
2023-05-01T22:35:31.824Z,49.79
2023-05-01T22:38:34.491Z,51.09
2023-05-01T22:41:37.655Z,51.94
2023-05-01T22:44:40.356Z,52.41
2023-05-01T22:47:43.484Z,53.64
2023-05-01T22:50:46.472Z,54.12
2023-05-01T22:53:49.835Z,54.00
2023-05-01T22:56:52.579Z,54.79
2023-05-01T22:59:55.543Z,55.43
2023-05-01T23:02:59.982Z,56.15
2023-05-01T23:06:03.294Z,56.21
2023-05-01T23:09:06.538Z,56.27
2023-05-01T23:12:16.869Z,56.83
2023-05-01T23:15:24.192Z,57.03
2023-05-01T23:18:32.129Z,56.86
2023-05-01T23:21:34.719Z,56.88
2023-05-01T23:24:44.879Z,57.20
2023-05-01T23:27:51.093Z,57.94
2023-05-01T23:30:56.821Z,57.29
2023-05-01T23:34:02.630Z,56.07
2023-05-01T23:37:06.687Z,57.37
2023-05-01T23:40:10.034Z,57.40
2023-05-01T23:43:13.732Z,58.44
2023-05-01T23:46:16.751Z,58.66
2023-05-01T23:49:19.807Z,58.36
2023-05-01T23:52:22.740Z,59.06
2023-05-01T23:55:26.043Z,59.99
2023-05-01T23:58:28.745Z,59.57
